Time;durP1;ratioP1;P1;durP2;ratioP2;P2;SDS_P1;SDS_P2;PMS_P1;PMS_P2;Temp;Humidity;BMP_temperature;BMP_pressure;BME280_temperature;BME280_humidity;BME280_pressure;Samples;Min_cycle;Max_cycle;Signal;HPM_P1;HPM_P2
2023/12/13 00:01:48;;;;;;;36.03;34.17;;;;;;;;;;4999081;28;20171;-58
2023/12/13 00:04:14;;;;;;;36.65;34.65;;;;;;;;;;4999329;28;20095;-59
2023/12/13 00:06:39;;;;;;;36.63;34.72;;;;;;;;;;5002924;28;20078;-58
2023/12/13 00:09:08;;;;;;;37.05;35.13;;;;;;;;;;4999378;28;20620;-59
2023/12/13 00:11:33;;;;;;;37.97;35.92;;;;;;;;;;5002282;28;20026;-58
2023/12/13 00:13:59;;;;;;;35.35;33.45;;;;;;;;;;5001347;28;20286;-58
2023/12/13 00:16:24;;;;;;;36.35;34.30;;;;;;;;;;4999471;28;20037;-58
2023/12/13 00:18:49;;;;;;;35.83;33.92;;;;;;;;;;4999395;28;20041;-59
2023/12/13 00:21:15;;;;;;;34.75;32.95;;;;;;;;;;4998829;28;20399;-60
2023/12/13 00:23:45;;;;;;;33.95;32.20;;;;;;;;;;5000294;28;20451;-58
2023/12/13 00:26:18;;;;;;;35.03;33.20;;;;;;;;;;5000978;28;20022;-59
2023/12/13 00:28:44;;;;;;;36.78;34.83;;;;;;;;;;5002816;28;20149;-58
2023/12/13 00:31:10;;;;;;;34.85;33.03;;;;;;;;;;5000272;28;20026;-58
2023/12/13 00:33:36;;;;;;;35.00;33.20;;;;;;;;;;5000653;28;20064;-59
2023/12/13 00:36:02;;;;;;;37.88;35.67;;;;;;;;;;4998931;28;20435;-58
2023/12/13 00:38:28;;;;;;;33.88;31.98;;;;;;;;;;5000096;28;20076;-59
2023/12/13 00:40:53;;;;;;;34.75;32.97;;;;;;;;;;5000274;28;20065;-59
2023/12/13 00:43:18;;;;;;;34.53;32.72;;;;;;;;;;5001153;28;20083;-59
2023/12/13 00:45:44;;;;;;;35.58;33.67;;;;;;;;;;5001031;28;20388;-59
2023/12/13 00:48:09;;;;;;;34.47;32.65;;;;;;;;;;4998653;28;20417;-59
2023/12/13 00:50:35;;;;;;;33.80;32.00;;;;;;;;;;5000966;28;20030;-58
2023/12/13 00:53:00;;;;;;;35.00;33.20;;;;;;;;;;4996767;28;20231;-58
2023/12/13 00:55:26;;;;;;;35.88;34.03;;;;;;;;;;5000869;28;20099;-59
2023/12/13 00:57:51;;;;;;;35.10;33.30;;;;;;;;;;4999396;28;20125;-58
2023/12/13 01:00:17;;;;;;;36.03;34.17;;;;;;;;;;4997940;28;20051;-59
2023/12/13 01:02:42;;;;;;;35.60;33.72;;;;;;;;;;5001463;28;20466;-59
2023/12/13 01:05:08;;;;;;;34.97;32.88;;;;;;;;;;5000099;28;20710;-59
2023/12/13 01:07:33;;;;;;;37.42;35.50;;;;;;;;;;5000108;28;20422;-58
2023/12/13 01:09:58;;;;;;;38.30;36.13;;;;;;;;;;4997958;28;20100;-58
2023/12/13 01:12:24;;;;;;;38.90;36.90;;;;;;;;;;4998263;28;20064;-62
2023/12/13 01:14:49;;;;;;;36.53;34.63;;;;;;;;;;4997977;28;20136;-58
2023/12/13 01:17:15;;;;;;;36.25;33.55;;;;;;;;;;4998362;28;20494;-59
2023/12/13 01:19:40;;;;;;;36.38;34.47;;;;;;;;;;5003324;28;20056;-61
2023/12/13 01:22:05;;;;;;;38.60;36.53;;;;;;;;;;5003264;28;20825;-58
2023/12/13 01:24:31;;;;;;;37.95;35.95;;;;;;;;;;4999925;28;20094;-58
2023/12/13 01:26:57;;;;;;;35.97;34.00;;;;;;;;;;4986978;28;20038;-60
2023/12/13 01:29:22;;;;;;;36.92;35.03;;;;;;;;;;4994984;28;20026;-60
2023/12/13 01:31:48;;;;;;;39.13;37.10;;;;;;;;;;4999037;28;20041;-60
2023/12/13 01:34:15;;;;;;;37.08;35.17;;;;;;;;;;5001564;28;20037;-58
2023/12/13 01:36:43;;;;;;;37.72;35.72;;;;;;;;;;5002982;28;20026;-59
2023/12/13 01:39:09;;;;;;;37.75;35.80;;;;;;;;;;4996783;28;20058;-58
2023/12/13 01:41:34;;;;;;;36.00;34.13;;;;;;;;;;5002312;28;20121;-59
2023/12/13 01:44:00;;;;;;;37.45;35.55;;;;;;;;;;4999862;28;20282;-58
2023/12/13 01:46:25;;;;;;;38.13;36.13;;;;;;;;;;4995729;28;21656;-58
2023/12/13 01:48:51;;;;;;;35.13;33.20;;;;;;;;;;4998607;28;20112;-58
2023/12/13 01:51:17;;;;;;;35.15;33.10;;;;;;;;;;4999234;28;20045;-59
2023/12/13 01:53:42;;;;;;;32.58;30.88;;;;;;;;;;4998747;28;20371;-58
2023/12/13 01:56:10;;;;;;;34.60;32.67;;;;;;;;;;4997940;28;20033;-58
2023/12/13 01:58:37;;;;;;;33.72;32.00;;;;;;;;;;5001835;28;20038;-58
2023/12/13 02:01:03;;;;;;;33.67;31.88;;;;;;;;;;4998932;28;20574;-58
2023/12/13 02:03:30;;;;;;;35.60;33.08;;;;;;;;;;4998363;28;20130;-59
2023/12/13 02:05:56;;;;;;;32.97;31.27;;;;;;;;;;4997219;28;20516;-58
2023/12/13 02:08:22;;;;;;;31.58;29.95;;;;;;;;;;4999636;28;20042;-58
2023/12/13 02:10:49;;;;;;;33.00;31.30;;;;;;;;;;4995343;28;20041;-59
2023/12/13 02:13:14;;;;;;;36.38;34.08;;;;;;;;;;4997740;28;20034;-58
2023/12/13 02:15:42;;;;;;;34.05;32.25;;;;;;;;;;4998056;28;20044;-58
2023/12/13 02:18:08;;;;;;;35.13;33.22;;;;;;;;;;4997630;28;20175;-59
2023/12/13 02:20:33;;;;;;;33.30;31.58;;;;;;;;;;4997171;28;20064;-58
2023/12/13 02:22:59;;;;;;;35.83;33.97;;;;;;;;;;4997759;28;20073;-58
2023/12/13 02:25:36;;;;;;;34.05;32.25;;;;;;;;;;4998619;28;20337;-58
2023/12/13 02:28:02;;;;;;;34.20;31.58;;;;;;;;;;4997159;28;20342;-58
2023/12/13 02:30:28;;;;;;;34.22;32.42;;;;;;;;;;4997975;28;20095;-58
2023/12/13 02:32:53;;;;;;;31.90;30.27;;;;;;;;;;4997591;28;20464;-61
2023/12/13 02:35:18;;;;;;;32.28;30.63;;;;;;;;;;4997832;28;20022;-58
2023/12/13 02:37:45;;;;;;;31.92;30.27;;;;;;;;;;4996491;28;20148;-58
2023/12/13 02:40:13;;;;;;;31.95;30.30;;;;;;;;;;4994343;28;20100;-58
2023/12/13 02:42:38;;;;;;;33.67;31.98;;;;;;;;;;5002819;28;20050;-59
2023/12/13 02:45:04;;;;;;;31.23;29.58;;;;;;;;;;4999485;28;20046;-58
2023/12/13 02:47:30;;;;;;;32.78;31.08;;;;;;;;;;4997906;28;20046;-58
2023/12/13 02:49:55;;;;;;;30.35;28.75;;;;;;;;;;4998743;28;20041;-58
2023/12/13 02:52:21;;;;;;;32.28;30.50;;;;;;;;;;5000401;28;20033;-58
2023/12/13 02:54:46;;;;;;;31.58;29.92;;;;;;;;;;4995960;28;20104;-58
2023/12/13 02:57:12;;;;;;;32.05;30.35;;;;;;;;;;4994994;28;20034;-59
2023/12/13 02:59:37;;;;;;;32.28;30.58;;;;;;;;;;4997986;28;20783;-58
2023/12/13 03:02:03;;;;;;;29.75;28.23;;;;;;;;;;4999777;28;20134;-59
2023/12/13 03:04:28;;;;;;;33.67;31.55;;;;;;;;;;4997963;28;20026;-58
2023/12/13 03:06:53;;;;;;;31.67;30.00;;;;;;;;;;4999220;28;20037;-58
2023/12/13 03:09:19;;;;;;;29.80;28.27;;;;;;;;;;4997425;28;20049;-59
2023/12/13 03:11:45;;;;;;;30.67;29.00;;;;;;;;;;4994971;28;20049;-58
2023/12/13 03:14:10;;;;;;;31.88;30.17;;;;;;;;;;5000470;28;20431;-58
2023/12/13 03:16:36;;;;;;;30.10;28.50;;;;;;;;;;4994494;28;20026;-58
2023/12/13 03:19:01;;;;;;;30.23;28.63;;;;;;;;;;4998130;28;20034;-58
2023/12/13 03:21:26;;;;;;;30.75;29.15;;;;;;;;;;4995521;28;20045;-58
2023/12/13 03:23:52;;;;;;;31.58;29.98;;;;;;;;;;4997783;28;20026;-58
2023/12/13 03:26:18;;;;;;;30.90;29.30;;;;;;;;;;4996310;28;20534;-59
2023/12/13 03:28:43;;;;;;;30.30;28.70;;;;;;;;;;5001102;28;20044;-58
2023/12/13 03:31:09;;;;;;;30.67;29.08;;;;;;;;;;4999961;28;20037;-58
2023/12/13 03:33:34;;;;;;;30.10;28.50;;;;;;;;;;5003052;28;20104;-58
2023/12/13 03:36:00;;;;;;;30.90;29.30;;;;;;;;;;5001496;28;20045;-63
2023/12/13 03:38:25;;;;;;;28.77;27.27;;;;;;;;;;5000178;28;20482;-59
2023/12/13 03:40:50;;;;;;;30.30;28.50;;;;;;;;;;5001637;28;20046;-58
2023/12/13 03:43:16;;;;;;;31.88;29.08;;;;;;;;;;4999587;28;20041;-58
2023/12/13 03:45:41;;;;;;;29.88;28.30;;;;;;;;;;4998711;28;20522;-58
2023/12/13 03:48:07;;;;;;;29.70;28.10;;;;;;;;;;4996644;28;20125;-59
2023/12/13 03:50:32;;;;;;;30.75;29.15;;;;;;;;;;5002195;28;20033;-58
2023/12/13 03:52:57;;;;;;;32.83;30.73;;;;;;;;;;4999923;28;20082;-59
2023/12/13 03:55:23;;;;;;;32.53;30.83;;;;;;;;;;5002549;28;20033;-58
2023/12/13 03:57:48;;;;;;;31.98;30.27;;;;;;;;;;4999643;28;20487;-58
2023/12/13 04:00:13;;;;;;;30.70;29.00;;;;;;;;;;4998888;28;20394;-58
2023/12/13 04:02:39;;;;;;;32.35;30.63;;;;;;;;;;5000055;28;20042;-58
2023/12/13 04:05:05;;;;;;;30.02;28.38;;;;;;;;;;4998460;28;20056;-58
2023/12/13 04:07:30;;;;;;;34.58;32.53;;;;;;;;;;4999481;28;20033;-58
2023/12/13 04:09:55;;;;;;;32.88;30.98;;;;;;;;;;4998772;28;20044;-58
2023/12/13 04:12:21;;;;;;;30.52;28.92;;;;;;;;;;5000507;28;20061;-58
2023/12/13 04:14:46;;;;;;;30.13;28.58;;;;;;;;;;5002600;28;20038;-58
2023/12/13 04:17:11;;;;;;;31.17;29.48;;;;;;;;;;4999614;28;20121;-58
2023/12/13 04:19:38;;;;;;;29.67;28.13;;;;;;;;;;4999601;28;20038;-58
2023/12/13 04:22:03;;;;;;;29.92;28.38;;;;;;;;;;4999715;28;20511;-58
2023/12/13 04:24:29;;;;;;;36.13;32.33;;;;;;;;;;4997004;28;20129;-58
2023/12/13 04:26:54;;;;;;;31.83;30.20;;;;;;;;;;5003019;28;20048;-58
2023/12/13 04:29:19;;;;;;;32.15;30.45;;;;;;;;;;5001580;28;20466;-58
2023/12/13 04:31:45;;;;;;;35.72;33.70;;;;;;;;;;4999550;28;20048;-57
2023/12/13 04:34:10;;;;;;;33.17;31.23;;;;;;;;;;5000098;28;20034;-58
2023/12/13 04:36:35;;;;;;;32.90;31.20;;;;;;;;;;5003366;28;20092;-58
2023/12/13 04:39:01;;;;;;;35.47;33.65;;;;;;;;;;4998258;28;20492;-58
2023/12/13 04:41:26;;;;;;;35.22;33.42;;;;;;;;;;5000295;28;20042;-58
2023/12/13 04:43:51;;;;;;;36.03;34.17;;;;;;;;;;4995008;28;20507;-58
2023/12/13 04:46:17;;;;;;;35.45;33.65;;;;;;;;;;5000899;28;20180;-58
2023/12/13 04:48:43;;;;;;;34.90;33.05;;;;;;;;;;5000474;28;20030;-58
2023/12/13 04:51:08;;;;;;;34.53;32.72;;;;;;;;;;4999250;28;20188;-58
2023/12/13 04:53:33;;;;;;;33.03;31.33;;;;;;;;;;4999166;28;20040;-58
2023/12/13 04:55:58;;;;;;;33.38;31.67;;;;;;;;;;4997291;28;20127;-58
2023/12/13 04:58:25;;;;;;;34.05;32.25;;;;;;;;;;4998090;28;20042;-58
2023/12/13 05:00:50;;;;;;;33.97;32.17;;;;;;;;;;4997503;28;20512;-58
2023/12/13 05:03:16;;;;;;;34.65;32.85;;;;;;;;;;5000439;28;20308;-58
2023/12/13 05:05:41;;;;;;;33.92;32.13;;;;;;;;;;5002147;28;20038;-58
2023/12/13 05:08:12;;;;;;;32.08;30.42;;;;;;;;;;5000759;28;20033;-58
2023/12/13 05:10:40;;;;;;;32.17;30.50;;;;;;;;;;4998304;28;20459;-57
2023/12/13 05:13:06;;;;;;;32.35;30.65;;;;;;;;;;4998157;28;20069;-58
2023/12/13 05:15:32;;;;;;;33.85;32.08;;;;;;;;;;4997682;28;20151;-58
2023/12/13 05:17:57;;;;;;;33.65;31.85;;;;;;;;;;4999882;28;20034;-58
2023/12/13 05:20:22;;;;;;;34.10;32.20;;;;;;;;;;4998187;28;20023;-58
2023/12/13 05:22:47;;;;;;;32.53;30.83;;;;;;;;;;4999685;28;20041;-58
2023/12/13 05:25:13;;;;;;;34.90;33.10;;;;;;;;;;4999922;28;20038;-59
2023/12/13 05:27:38;;;;;;;31.92;30.23;;;;;;;;;;4997246;28;20550;-58
2023/12/13 05:30:04;;;;;;;30.05;28.45;;;;;;;;;;4998558;28;20061;-58
2023/12/13 05:32:30;;;;;;;34.15;32.35;;;;;;;;;;4998820;28;20038;-58
2023/12/13 05:34:55;;;;;;;33.38;31.67;;;;;;;;;;5000459;28;20076;-59
2023/12/13 05:37:20;;;;;;;31.67;30.08;;;;;;;;;;4997279;28;20033;-59
2023/12/13 05:39:46;;;;;;;31.85;30.23;;;;;;;;;;4997089;28;20034;-58
2023/12/13 05:42:11;;;;;;;33.50;31.73;;;;;;;;;;4998669;28;20077;-59
2023/12/13 05:44:36;;;;;;;33.17;31.48;;;;;;;;;;4995233;28;20472;-59
2023/12/13 05:47:02;;;;;;;34.67;32.30;;;;;;;;;;5001904;28;20042;-58
2023/12/13 05:49:27;;;;;;;33.25;31.55;;;;;;;;;;4997195;28;20061;-57
2023/12/13 05:51:53;;;;;;;32.80;31.10;;;;;;;;;;4999452;28;20456;-58
2023/12/13 05:54:19;;;;;;;33.45;31.70;;;;;;;;;;4996478;28;20429;-58
2023/12/13 05:56:45;;;;;;;33.70;32.00;;;;;;;;;;5001760;28;20045;-58
2023/12/13 05:59:10;;;;;;;33.45;31.75;;;;;;;;;;4995605;28;20037;-58
2023/12/13 06:01:36;;;;;;;33.55;31.65;;;;;;;;;;4998839;28;20360;-58
2023/12/13 06:04:01;;;;;;;33.83;32.03;;;;;;;;;;4999298;28;20061;-58
2023/12/13 06:06:27;;;;;;;34.53;32.65;;;;;;;;;;4999016;28;20142;-59
2023/12/13 06:08:52;;;;;;;32.53;30.83;;;;;;;;;;4998211;28;20030;-58
2023/12/13 06:11:17;;;;;;;33.33;31.60;;;;;;;;;;4997775;28;20074;-59
2023/12/13 06:13:43;;;;;;;34.50;32.70;;;;;;;;;;4995405;28;20076;-59
2023/12/13 06:16:12;;;;;;;31.27;29.65;;;;;;;;;;4998980;28;20072;-59
2023/12/13 06:18:38;;;;;;;31.23;29.42;;;;;;;;;;4996106;28;20064;-57
2023/12/13 06:21:05;;;;;;;33.72;31.95;;;;;;;;;;4999107;28;20034;-60
2023/12/13 06:23:30;;;;;;;34.55;31.50;;;;;;;;;;4996320;28;20069;-58
2023/12/13 06:25:56;;;;;;;31.77;30.13;;;;;;;;;;5001488;28;20046;-59
2023/12/13 06:28:22;;;;;;;31.10;29.50;;;;;;;;;;4995761;28;20031;-59
2023/12/13 06:30:47;;;;;;;31.52;29.90;;;;;;;;;;5000199;28;20482;-59
2023/12/13 06:33:13;;;;;;;31.10;29.45;;;;;;;;;;4998435;28;20042;-59
2023/12/13 06:35:38;;;;;;;30.45;28.85;;;;;;;;;;5001436;28;20037;-59
2023/12/13 06:38:03;;;;;;;32.60;30.90;;;;;;;;;;4998251;28;20050;-59
2023/12/13 06:40:29;;;;;;;31.25;29.55;;;;;;;;;;4995749;28;20026;-59
2023/12/13 06:42:54;;;;;;;31.98;30.30;;;;;;;;;;4999542;28;20037;-57
2023/12/13 06:45:20;;;;;;;32.70;31.00;;;;;;;;;;4997690;28;20026;-58
2023/12/13 06:47:46;;;;;;;32.17;30.48;;;;;;;;;;4995007;28;20049;-58
2023/12/13 06:50:11;;;;;;;31.75;30.10;;;;;;;;;;4998958;28;20042;-58
2023/12/13 06:52:36;;;;;;;32.08;30.38;;;;;;;;;;4997718;28;20150;-58
2023/12/13 06:55:03;;;;;;;32.25;30.52;;;;;;;;;;4997275;28;20459;-59
2023/12/13 06:57:28;;;;;;;32.97;31.27;;;;;;;;;;4997463;28;20042;-60
2023/12/13 06:59:54;;;;;;;32.55;30.85;;;;;;;;;;5001977;28;20038;-59
2023/12/13 07:02:20;;;;;;;35.92;34.10;;;;;;;;;;5002418;28;20371;-59
2023/12/13 07:04:46;;;;;;;36.63;34.72;;;;;;;;;;5000492;28;20041;-58
2023/12/13 07:07:14;;;;;;;34.75;32.95;;;;;;;;;;4999539;28;20087;-59
2023/12/13 07:09:41;;;;;;;34.15;32.35;;;;;;;;;;5001595;28;20084;-58
2023/12/13 07:12:07;;;;;;;34.35;32.55;;;;;;;;;;5000402;28;20034;-59
2023/12/13 07:14:32;;;;;;;35.75;33.92;;;;;;;;;;4999571;28;20034;-59
2023/12/13 07:16:57;;;;;;;33.22;31.52;;;;;;;;;;5001516;28;20654;-59
2023/12/13 07:19:23;;;;;;;35.45;33.65;;;;;;;;;;4999699;28;20121;-59
2023/12/13 07:21:48;;;;;;;36.95;34.35;;;;;;;;;;5002737;28;20196;-58
2023/12/13 07:24:13;;;;;;;34.10;32.30;;;;;;;;;;4999144;28;20373;-59
2023/12/13 07:26:39;;;;;;;34.83;33.03;;;;;;;;;;4999041;28;20044;-59
2023/12/13 07:29:04;;;;;;;35.78;33.72;;;;;;;;;;4998109;28;20088;-60
2023/12/13 07:31:29;;;;;;;35.03;33.17;;;;;;;;;;4998855;28;20033;-59
2023/12/13 07:33:55;;;;;;;34.97;33.17;;;;;;;;;;4999961;28;20076;-59
2023/12/13 07:36:20;;;;;;;33.35;31.65;;;;;;;;;;4997020;28;20087;-59
2023/12/13 07:38:46;;;;;;;36.05;34.15;;;;;;;;;;5000274;28;20034;-59
2023/12/13 07:41:13;;;;;;;35.30;33.50;;;;;;;;;;5000013;28;20349;-59
2023/12/13 07:43:39;;;;;;;37.92;35.72;;;;;;;;;;5000492;28;20033;-59
2023/12/13 07:46:05;;;;;;;36.60;34.67;;;;;;;;;;4999131;28;20068;-60
2023/12/13 07:48:31;;;;;;;38.08;34.85;;;;;;;;;;5000952;28;20096;-59
2023/12/13 07:50:56;;;;;;;37.03;35.13;;;;;;;;;;5000153;28;20451;-60
2023/12/13 07:53:22;;;;;;;36.83;34.83;;;;;;;;;;5001608;28;20419;-61
2023/12/13 07:55:47;;;;;;;35.70;33.90;;;;;;;;;;5000848;28;20100;-59
2023/12/13 07:58:12;;;;;;;37.38;35.47;;;;;;;;;;4997151;28;20400;-59
2023/12/13 08:00:38;;;;;;;35.65;33.85;;;;;;;;;;5000474;28;20030;-59
2023/12/13 08:03:04;;;;;;;36.60;34.70;;;;;;;;;;4998956;28;20068;-59
2023/12/13 08:05:30;;;;;;;39.97;37.88;;;;;;;;;;5001336;28;20052;-59
2023/12/13 08:07:55;;;;;;;40.50;38.30;;;;;;;;;;4999371;28;20542;-60
2023/12/13 08:10:20;;;;;;;37.30;35.40;;;;;;;;;;5001721;28;20662;-59
2023/12/13 08:12:46;;;;;;;39.60;37.60;;;;;;;;;;4997935;28;20042;-59
2023/12/13 08:15:11;;;;;;;38.65;36.65;;;;;;;;;;4987421;28;20029;-59
2023/12/13 08:17:37;;;;;;;40.25;38.05;;;;;;;;;;5000637;28;20089;-59
2023/12/13 08:20:04;;;;;;;38.65;36.63;;;;;;;;;;4999325;28;20363;-59
2023/12/13 08:22:29;;;;;;;44.85;42.25;;;;;;;;;;4997851;28;20068;-58
2023/12/13 08:24:55;;;;;;;39.33;37.22;;;;;;;;;;4997649;28;20084;-58
2023/12/13 08:27:20;;;;;;;36.65;34.75;;;;;;;;;;4998227;28;20038;-58
2023/12/13 08:29:45;;;;;;;36.63;34.72;;;;;;;;;;5000308;28;20038;-58
2023/12/13 08:32:11;;;;;;;37.35;35.45;;;;;;;;;;4999547;28;20043;-58
2023/12/13 08:34:36;;;;;;;36.88;34.97;;;;;;;;;;4999707;28;20025;-58
2023/12/13 08:37:02;;;;;;;38.92;36.92;;;;;;;;;;4998384;28;20038;-58
2023/12/13 08:39:27;;;;;;;35.30;33.50;;;;;;;;;;4998876;28;20029;-58
2023/12/13 08:41:53;;;;;;;33.95;32.15;;;;;;;;;;4998986;28;20381;-58
2023/12/13 08:44:18;;;;;;;34.35;32.42;;;;;;;;;;4996444;28;20038;-58
2023/12/13 08:46:45;;;;;;;34.13;32.33;;;;;;;;;;4998560;28;20049;-59
2023/12/13 08:49:11;;;;;;;34.22;32.42;;;;;;;;;;4996125;28;20113;-58
2023/12/13 08:51:36;;;;;;;34.47;32.67;;;;;;;;;;5000220;28;20156;-58
2023/12/13 08:54:03;;;;;;;38.33;36.13;;;;;;;;;;4998454;28;20111;-58
2023/12/13 08:56:29;;;;;;;33.45;31.65;;;;;;;;;;4998827;28;20034;-58
2023/12/13 08:58:54;;;;;;;33.40;31.65;;;;;;;;;;4998748;28;20104;-58
2023/12/13 09:01:20;;;;;;;34.28;32.47;;;;;;;;;;4999481;28;20069;-58
2023/12/13 09:03:45;;;;;;;35.00;33.20;;;;;;;;;;4998437;28;20058;-58
2023/12/13 09:06:12;;;;;;;34.63;32.83;;;;;;;;;;4999489;28;20591;-58
2023/12/13 09:08:38;;;;;;;35.33;33.50;;;;;;;;;;4998604;28;20060;-58
2023/12/13 09:11:03;;;;;;;34.88;33.08;;;;;;;;;;4999492;28;20038;-58
2023/12/13 09:13:28;;;;;;;36.70;34.83;;;;;;;;;;5000909;28;20589;-58
2023/12/13 09:15:54;;;;;;;37.65;35.63;;;;;;;;;;4997598;28;20034;-58
2023/12/13 09:18:20;;;;;;;38.35;36.38;;;;;;;;;;4996839;28;20033;-59
2023/12/13 09:20:45;;;;;;;40.25;38.20;;;;;;;;;;4996343;28;20084;-59
2023/12/13 09:23:20;;;;;;;40.17;38.10;;;;;;;;;;4996939;28;20030;-59
2023/12/13 09:25:45;;;;;;;39.63;37.60;;;;;;;;;;5000108;28;20049;-59
2023/12/13 09:28:11;;;;;;;39.83;37.80;;;;;;;;;;4997097;28;20044;-59
2023/12/13 09:30:37;;;;;;;40.30;38.20;;;;;;;;;;5000803;28;20460;-59
2023/12/13 09:33:02;;;;;;;42.80;40.60;;;;;;;;;;4995805;28;20038;-59
2023/12/13 09:35:27;;;;;;;39.85;37.78;;;;;;;;;;4996834;28;20371;-59
2023/12/13 09:37:53;;;;;;;43.05;40.85;;;;;;;;;;4999842;28;20038;-59
2023/12/13 09:40:19;;;;;;;42.78;40.58;;;;;;;;;;5000841;28;20026;-59
2023/12/13 09:42:47;;;;;;;44.10;41.80;;;;;;;;;;4999136;28;20649;-59
2023/12/13 09:45:20;;;;;;;43.22;40.63;;;;;;;;;;4999508;28;20036;-58
2023/12/13 09:47:46;;;;;;;44.50;42.22;;;;;;;;;;5002413;28;20472;-59
2023/12/13 09:50:13;;;;;;;41.25;39.10;;;;;;;;;;4998395;28;20053;-59
2023/12/13 09:52:40;;;;;;;40.13;38.00;;;;;;;;;;4998690;28;20069;-59
2023/12/13 09:55:07;;;;;;;42.72;40.50;;;;;;;;;;4998132;28;20657;-59
2023/12/13 09:57:33;;;;;;;45.53;43.22;;;;;;;;;;4998132;28;20033;-59
2023/12/13 09:59:58;;;;;;;43.58;41.38;;;;;;;;;;4997457;28;21750;-59
2023/12/13 10:02:24;;;;;;;46.95;44.55;;;;;;;;;;4995710;28;20050;-59
2023/12/13 10:04:51;;;;;;;41.72;39.53;;;;;;;;;;4997286;28;20034;-59
2023/12/13 10:07:17;;;;;;;37.28;35.20;;;;;;;;;;4998724;28;20034;-59
2023/12/13 10:09:43;;;;;;;35.47;33.65;;;;;;;;;;4997248;28;20037;-58
2023/12/13 10:12:08;;;;;;;35.17;33.38;;;;;;;;;;4999881;28;20097;-59
2023/12/13 10:14:37;;;;;;;35.97;34.08;;;;;;;;;;4997166;28;20037;-59
2023/12/13 10:17:03;;;;;;;41.35;39.03;;;;;;;;;;4998323;28;20146;-59
2023/12/13 10:19:29;;;;;;;42.60;40.42;;;;;;;;;;4996259;28;20030;-59
2023/12/13 10:21:54;;;;;;;40.50;38.40;;;;;;;;;;4995783;28;20040;-58
2023/12/13 10:24:24;;;;;;;34.75;32.85;;;;;;;;;;4996592;28;20699;-59
2023/12/13 10:26:50;;;;;;;31.88;30.17;;;;;;;;;;4996343;28;20049;-59
2023/12/13 10:29:16;;;;;;;29.33;27.80;;;;;;;;;;4997009;28;20041;-58
2023/12/13 10:31:45;;;;;;;31.67;29.98;;;;;;;;;;4998541;28;20040;-58
2023/12/13 10:34:10;;;;;;;29.40;27.90;;;;;;;;;;4998610;28;20547;-59
2023/12/13 10:36:35;;;;;;;30.92;29.33;;;;;;;;;;4998164;28;20125;-59
2023/12/13 10:39:03;;;;;;;32.50;30.73;;;;;;;;;;5002693;28;20472;-59
2023/12/13 10:41:29;;;;;;;31.60;29.90;;;;;;;;;;5001027;28;20133;-59
2023/12/13 10:43:57;;;;;;;31.95;30.25;;;;;;;;;;5001010;28;20035;-59
2023/12/13 10:46:26;;;;;;;32.78;31.08;;;;;;;;;;4999252;28;20085;-59
2023/12/13 10:48:52;;;;;;;33.58;31.88;;;;;;;;;;5005561;28;20026;-59
2023/12/13 10:51:18;;;;;;;31.77;30.08;;;;;;;;;;5002252;28;20038;-59
2023/12/13 10:53:45;;;;;;;30.40;28.80;;;;;;;;;;4999097;28;20050;-59
2023/12/13 10:56:12;;;;;;;30.50;28.85;;;;;;;;;;5000548;28;20385;-59
2023/12/13 10:58:38;;;;;;;30.15;28.58;;;;;;;;;;5000565;28;20472;-59
2023/12/13 11:01:05;;;;;;;30.63;29.02;;;;;;;;;;5001822;28;20753;-58
2023/12/13 11:03:52;;;;;;;30.50;28.90;;;;;;;;;;4999070;28;20081;-59
2023/12/13 11:06:17;;;;;;;30.20;28.50;;;;;;;;;;5003396;28;20671;-59
2023/12/13 11:08:44;;;;;;;30.10;28.40;;;;;;;;;;5001065;28;20030;-59
2023/12/13 11:11:16;;;;;;;32.35;30.65;;;;;;;;;;5001849;28;20041;-59
2023/12/13 11:13:53;;;;;;;31.25;29.65;;;;;;;;;;5001914;28;20045;-59
2023/12/13 11:16:22;;;;;;;31.75;30.08;;;;;;;;;;5002197;28;20144;-59
2023/12/13 11:18:50;;;;;;;34.15;32.40;;;;;;;;;;4995394;28;20037;-59
2023/12/13 11:21:30;;;;;;;33.20;31.50;;;;;;;;;;4999840;28;20084;-59
2023/12/13 11:23:58;;;;;;;33.95;32.20;;;;;;;;;;4998333;28;20030;-59
2023/12/13 11:26:27;;;;;;;33.33;31.63;;;;;;;;;;5002681;28;20052;-59
2023/12/13 11:28:54;;;;;;;34.22;32.42;;;;;;;;;;4999689;28;20038;-59
2023/12/13 11:31:24;;;;;;;33.03;30.83;;;;;;;;;;4999619;28;20033;-59
2023/12/13 11:33:53;;;;;;;33.72;31.98;;;;;;;;;;5000124;28;20113;-58
2023/12/13 11:36:24;;;;;;;34.97;33.17;;;;;;;;;;4998717;28;20172;-59
2023/12/13 11:38:55;;;;;;;35.72;33.92;;;;;;;;;;4998321;28;20042;-59
2023/12/13 11:41:20;;;;;;;;;;;;;;;;;;5001019;28;20119;-58
2023/12/13 11:43:46;;;;;;;33.58;31.88;;;;;;;;;;4998224;28;19917;-59
2023/12/13 11:46:13;;;;;;;33.97;32.20;;;;;;;;;;5000525;28;20486;-59
2023/12/13 11:48:38;;;;;;;33.78;32.03;;;;;;;;;;4998573;28;20380;-59
2023/12/13 11:51:04;;;;;;;33.53;31.83;;;;;;;;;;4999823;28;20542;-58
2023/12/13 11:53:29;;;;;;;33.95;32.17;;;;;;;;;;4999580;28;20467;-58
2023/12/13 11:55:56;;;;;;;33.08;31.38;;;;;;;;;;4997188;28;20042;-58
2023/12/13 11:58:21;;;;;;;35.45;33.58;;;;;;;;;;4997840;28;20456;-59
2023/12/13 12:00:47;;;;;;;33.65;31.92;;;;;;;;;;5000237;28;20057;-59
2023/12/13 12:03:12;;;;;;;32.90;31.17;;;;;;;;;;4999462;28;20044;-59
2023/12/13 12:05:41;;;;;;;32.42;30.73;;;;;;;;;;5000807;28;20034;-59
2023/12/13 12:08:06;;;;;;;28.77;27.27;;;;;;;;;;4996257;28;20030;-59
2023/12/13 12:10:33;;;;;;;28.90;27.40;;;;;;;;;;5030435;28;20044;-59
2023/12/13 12:13:00;;;;;;;29.58;28.08;;;;;;;;;;4997751;28;20117;-59
2023/12/13 12:15:26;;;;;;;29.08;27.58;;;;;;;;;;4999723;28;20038;-59
2023/12/13 12:17:51;;;;;;;28.63;27.02;;;;;;;;;;4997530;28;20365;-59
2023/12/13 12:20:17;;;;;;;29.33;27.73;;;;;;;;;;4999059;28;20042;-59
2023/12/13 12:22:43;;;;;;;29.83;28.25;;;;;;;;;;4999962;28;20038;-58
2023/12/13 12:25:11;;;;;;;30.00;28.10;;;;;;;;;;4999602;28;20042;-59
2023/12/13 12:27:44;;;;;;;30.73;29.08;;;;;;;;;;5029989;28;20859;-59
2023/12/13 12:30:09;;;;;;;28.95;27.45;;;;;;;;;;4996310;28;20097;-58
2023/12/13 12:32:35;;;;;;;28.27;26.75;;;;;;;;;;4999010;28;20072;-58
2023/12/13 12:35:02;;;;;;;30.30;28.60;;;;;;;;;;4999751;28;20125;-59
2023/12/13 12:37:27;;;;;;;30.05;28.40;;;;;;;;;;4999542;28;20034;-58
2023/12/13 12:39:53;;;;;;;30.17;28.58;;;;;;;;;;4997564;28;20045;-58
2023/12/13 12:42:19;;;;;;;28.92;27.42;;;;;;;;;;5000033;28;20022;-58
2023/12/13 12:44:45;;;;;;;27.08;25.65;;;;;;;;;;4995771;28;20045;-58
2023/12/13 12:47:10;;;;;;;27.23;25.83;;;;;;;;;;4991004;28;20099;-58
2023/12/13 12:49:35;;;;;;;27.90;26.42;;;;;;;;;;5000989;28;20042;-58
2023/12/13 12:52:01;;;;;;;26.20;24.80;;;;;;;;;;4997249;28;20030;-58
2023/12/13 12:54:26;;;;;;;27.80;26.10;;;;;;;;;;4995720;28;20034;-58
2023/12/13 12:56:52;;;;;;;28.33;26.83;;;;;;;;;;4995049;28;20030;-59
2023/12/13 12:59:17;;;;;;;28.92;27.42;;;;;;;;;;4992120;28;20117;-58
2023/12/13 13:01:43;;;;;;;26.67;25.27;;;;;;;;;;4996026;28;20379;-59
2023/12/13 13:04:14;;;;;;;29.50;27.98;;;;;;;;;;4991603;28;20037;-59
2023/12/13 13:06:41;;;;;;;26.52;25.13;;;;;;;;;;4996379;28;20128;-59
2023/12/13 13:09:07;;;;;;;25.15;23.85;;;;;;;;;;4992195;28;20038;-58
2023/12/13 13:11:33;;;;;;;26.38;24.98;;;;;;;;;;4994408;28;20046;-60
2023/12/13 13:14:00;;;;;;;26.02;24.65;;;;;;;;;;4994510;28;20037;-59
2023/12/13 13:16:26;;;;;;;26.83;25.23;;;;;;;;;;4995963;28;20098;-60
2023/12/13 13:18:51;;;;;;;27.23;25.73;;;;;;;;;;4993118;28;20494;-58
2023/12/13 13:21:16;;;;;;;27.38;25.77;;;;;;;;;;4991301;28;20457;-58
2023/12/13 13:23:42;;;;;;;27.70;26.23;;;;;;;;;;4994816;28;20021;-59
2023/12/13 13:26:09;;;;;;;28.02;26.42;;;;;;;;;;4991775;28;20141;-58
2023/12/13 13:28:35;;;;;;;26.55;25.15;;;;;;;;;;4989562;28;20136;-58
2023/12/13 13:31:01;;;;;;;32.28;30.58;;;;;;;;;;4992758;28;20030;-59
2023/12/13 13:33:26;;;;;;;27.35;25.95;;;;;;;;;;4994118;28;20030;-59
2023/12/13 13:35:51;;;;;;;27.77;26.23;;;;;;;;;;4994302;28;20041;-59
2023/12/13 13:38:17;;;;;;;27.23;25.83;;;;;;;;;;4991763;28;20064;-59
2023/12/13 13:40:42;;;;;;;28.55;27.05;;;;;;;;;;4991271;28;20096;-59
2023/12/13 13:43:08;;;;;;;30.77;29.13;;;;;;;;;;4994413;28;20034;-59
2023/12/13 13:45:33;;;;;;;30.77;29.17;;;;;;;;;;4993437;28;20057;-59
2023/12/13 13:47:59;;;;;;;30.52;28.92;;;;;;;;;;4996135;28;20092;-59
2023/12/13 13:50:26;;;;;;;32.30;30.63;;;;;;;;;;4993669;28;20034;-59
2023/12/13 13:52:51;;;;;;;34.45;32.65;;;;;;;;;;4995815;28;20034;-59
2023/12/13 13:55:17;;;;;;;33.28;31.58;;;;;;;;;;4992893;28;20479;-59
2023/12/13 13:57:42;;;;;;;34.00;32.25;;;;;;;;;;4993285;28;20038;-58
2023/12/13 14:00:10;;;;;;;32.30;30.60;;;;;;;;;;4994916;28;20052;-61
2023/12/13 14:02:35;;;;;;;33.28;31.48;;;;;;;;;;5000668;28;20112;-59
2023/12/13 14:05:01;;;;;;;32.40;30.70;;;;;;;;;;4998306;28;20176;-59
2023/12/13 14:07:26;;;;;;;32.88;31.15;;;;;;;;;;4998930;28;20068;-59
2023/12/13 14:09:52;;;;;;;32.40;30.70;;;;;;;;;;4996929;28;20097;-59
2023/12/13 14:12:17;;;;;;;33.58;31.77;;;;;;;;;;4997549;28;20026;-59